»·PEaware :: DAL1505 KRNO-KSLC

DAL1505 :: KRNO-KSLC

FLIGHT INFORMATION

Flight Status: Arrived
Operator:
Delta Air Lines
More flights by this operator :: More flights under this callsign
Pilot: Anonymous 12234 (12234)
Aircraft: BOEING 737-200
(B732)
More flights by this aircraft type
Origin: KRNO Reno/Tahoe Intl
United States
Destination: KSLC Salt Lake City Intl
United States
More flights between these airports :: More routes between these airports
Route: +WAGGE6 LLC J94 BAM J154 BVL BVL2
File this flight plan on PilotEdge
Remarks:
Altitude:
(Current/Filed)
31,000ft
Speed:
(Current/Filed)
433kts
Departed: 22-Apr-18 12:36 PM
Arrived: 22-Apr-18 01:43 PM
Distance/Time
Traveled:
365nm/1:07
Distance/Time
To Go:
Arrived

Flight Plot

Page will automatically refresh every two minutes.

Flight plan parsing failed; only flown route is shown


Map Options




Map Legend


Flown Route
Filed Route
Departure Airport
Arrival Airport
Navaid (VOR, NDB)
Fix

Horizontal Profiles

Position Reports

Time Latitude Longitude Heading Altitude Ground
Speed
22-Apr-18 12:08 39.505222 -119.773666 179 4418ft 0kts
22-Apr-18 12:09 39.505222 -119.773666 179 4418ft 0kts
22-Apr-18 12:10 39.505222 -119.773666 179 4418ft 0kts
22-Apr-18 12:11 39.505222 -119.773666 179 4418ft 0kts
22-Apr-18 12:12 39.505222 -119.773666 179 4418ft 0kts
22-Apr-18 12:13 39.505222 -119.773666 179 4418ft 0kts
22-Apr-18 12:14 39.505222 -119.773666 179 4418ft 0kts
22-Apr-18 12:15 39.505222 -119.773666 179 4418ft 0kts
22-Apr-18 12:16 39.505222 -119.773666 179 4418ft 0kts
22-Apr-18 12:17 39.505222 -119.773666 179 4418ft 0kts
22-Apr-18 12:18 39.505222 -119.773666 179 4418ft 0kts
22-Apr-18 12:19 39.505223 -119.773666 179 4417ft 0kts
22-Apr-18 12:20 39.505223 -119.773666 179 4417ft 0kts
22-Apr-18 12:21 39.505223 -119.773666 179 4417ft 0kts
22-Apr-18 12:22 39.505223 -119.773666 179 4417ft 0kts
22-Apr-18 12:23 39.505223 -119.773666 179 4417ft 0kts
22-Apr-18 12:24 39.505223 -119.773666 179 4417ft 0kts
22-Apr-18 12:25 39.505223 -119.773666 179 4417ft 0kts
22-Apr-18 12:26 39.505522 -119.773666 179 4417ft 2kts
22-Apr-18 12:27 39.505999 -119.773807 131 4417ft 0kts
22-Apr-18 12:28 39.506002 -119.773811 131 4417ft 0kts
22-Apr-18 12:29 39.506002 -119.773811 131 4417ft 0kts
22-Apr-18 12:30 39.505911 -119.772544 89 4417ft 10kts
22-Apr-18 12:31 39.505909 -119.772239 91 4417ft 0kts
22-Apr-18 12:32 39.506778 -119.771491 359 4417ft 16kts
22-Apr-18 12:33 39.513065 -119.771464 1 4417ft 12kts
22-Apr-18 12:34 39.512430 -119.769228 180 4417ft 25kts
22-Apr-18 12:35 39.477179 -119.769280 179 5121ft 183kts
22-Apr-18 12:36 39.427819 -119.769360 181 7413ft 175kts
22-Apr-18 12:37 39.369714 -119.770169 180 8659ft 237kts
22-Apr-18 12:38 39.303800 -119.770437 180 11060ft 244kts
22-Apr-18 12:39 39.250818 -119.732905 93 13034ft 253kts
22-Apr-18 12:40 39.281900 -119.648439 55 14916ft 267kts
22-Apr-18 12:41 39.325008 -119.555925 56 15634ft 327kts
22-Apr-18 12:42 39.381058 -119.463375 41 17289ft 341kts
22-Apr-18 12:43 39.449575 -119.372273 42 18538ft 364kts
22-Apr-18 12:44 39.517945 -119.280456 43 19946ft 374kts
22-Apr-18 12:45 39.590954 -119.182619 41 21272ft 382kts
22-Apr-18 12:46 39.669623 -119.090536 36 22449ft 388kts
22-Apr-18 12:47 39.752708 -119.001281 36 23517ft 396kts
22-Apr-18 12:48 39.837601 -118.909696 36 24486ft 403kts
22-Apr-18 12:49 39.923195 -118.817029 35 25370ft 410kts
22-Apr-18 12:50 40.011342 -118.723948 36 26091ft 417kts
22-Apr-18 12:51 40.091906 -118.614652 47 26816ft 425kts
22-Apr-18 12:52 40.166909 -118.503560 55 27448ft 431kts
22-Apr-18 12:53 40.197265 -118.358200 80 28165ft 432kts
22-Apr-18 12:54 40.227958 -118.212593 71 28688ft 437kts
22-Apr-18 12:55 40.267433 -118.063720 70 29305ft 439kts
22-Apr-18 12:56 40.308556 -117.915000 69 29884ft 440kts
22-Apr-18 12:57 40.349928 -117.766841 70 30406ft 442kts
22-Apr-18 12:58 40.388946 -117.616708 71 31077ft 439kts
22-Apr-18 12:59 40.425337 -117.464526 72 31100ft 453kts
22-Apr-18 13:00 40.463128 -117.308376 73 31104ft 465kts
22-Apr-18 13:01 40.505911 -117.147593 69 31104ft 476kts
22-Apr-18 13:02 40.545605 -117.013050 68 31101ft 480kts
22-Apr-18 13:03 40.577105 -116.847929 94 31128ft 470kts
22-Apr-18 13:04 40.586644 -116.679763 85 31104ft 469kts
22-Apr-18 13:05 40.599501 -116.512733 85 31104ft 467kts
22-Apr-18 13:06 40.612494 -116.345577 85 31107ft 466kts
22-Apr-18 13:07 40.624198 -116.180401 86 31101ft 467kts
22-Apr-18 13:08 40.633516 -116.020259 87 31068ft 466kts
22-Apr-18 13:09 40.642645 -115.853002 87 31076ft 463kts
22-Apr-18 13:10 40.651855 -115.686574 87 31077ft 462kts
22-Apr-18 13:11 40.661118 -115.519965 86 31078ft 462kts
22-Apr-18 13:12 40.670507 -115.352754 86 31079ft 462kts
22-Apr-18 13:13 40.675966 -115.188006 90 31075ft 461kts
22-Apr-18 13:14 40.679337 -115.020902 90 31075ft 460kts
22-Apr-18 13:15 40.682771 -114.854096 90 31103ft 459kts
22-Apr-18 13:16 40.686365 -114.687732 89 31105ft 462kts
22-Apr-18 13:17 40.690019 -114.520557 89 31106ft 464kts
22-Apr-18 13:18 40.695752 -114.356806 85 31106ft 466kts
22-Apr-18 13:19 40.707624 -114.194529 86 31103ft 467kts
22-Apr-18 13:20 40.718868 -114.029089 88 29216ft 451kts
22-Apr-18 13:21 40.722225 -113.870897 89 27257ft 430kts
22-Apr-18 13:22 40.725886 -113.718284 89 25262ft 412kts
22-Apr-18 13:23 40.728421 -113.571462 91 23254ft 396kts
22-Apr-18 13:24 40.727651 -113.430785 91 21282ft 382kts
22-Apr-18 13:25 40.726908 -113.297663 91 19351ft 370kts
22-Apr-18 13:26 40.726253 -113.178787 91 17605ft 361kts
22-Apr-18 13:27 40.725609 -113.052497 91 17054ft 354kts
22-Apr-18 13:28 40.724985 -112.927124 91 15262ft 346kts
22-Apr-18 13:29 40.724360 -112.805608 91 14052ft 335kts
22-Apr-18 13:30 40.723775 -112.684645 91 13992ft 332kts
22-Apr-18 13:31 40.733455 -112.565993 71 13270ft 338kts
22-Apr-18 13:32 40.763589 -112.450338 70 11411ft 333kts
22-Apr-18 13:33 40.791303 -112.339497 71 10372ft 302kts
22-Apr-18 13:34 40.821092 -112.243491 62 9212ft 288kts
22-Apr-18 13:35 40.857636 -112.153874 59 7900ft 281kts
22-Apr-18 13:36 40.903896 -112.085176 2 7465ft 239kts
22-Apr-18 13:37 40.962038 -112.093130 17 7462ft 199kts
22-Apr-18 13:38 40.961381 -112.042339 145 7436ft 189kts
22-Apr-18 13:39 40.911308 -112.012763 169 6506ft 211kts
22-Apr-18 13:40 40.857145 -112.004889 175 5218ft 166kts
22-Apr-18 13:41 40.814399 -112.000014 173 4409ft 152kts
22-Apr-18 13:42 40.788126 -111.996499 144 4236ft 25kts
22-Apr-18 13:43 40.787213 -111.995260 122 4236ft 6kts
22-Apr-18 13:44 40.787243 -111.988982 79 4236ft 9kts
22-Apr-18 13:45 40.788230 -111.987137 91 4236ft 9kts
22-Apr-18 13:46 40.788453 -111.985352 70 4236ft 0kts
22-Apr-18 13:47 40.788453 -111.985352 70 4236ft 0kts
22-Apr-18 13:48 40.788453 -111.985352 71 4236ft 0kts
22-Apr-18 13:49 40.788453 -111.985352 71 4236ft 0kts
22-Apr-18 13:50 40.788453 -111.985352 71 4236ft 0kts
22-Apr-18 13:51 40.788453 -111.985352 71 4236ft 0kts
22-Apr-18 13:52 40.788453 -111.985352 71 4236ft 0kts
22-Apr-18 13:53 40.788453 -111.985352 71 4236ft 0kts

Navigation Log

Ident Type
Flight plan parsing failed, navigation log unavailable